Time;durP1;ratioP1;P1;durP2;ratioP2;P2;SDS_P1;SDS_P2;PMS_P1;PMS_P2;Temp;Humidity;BMP_temperature;BMP_pressure;BME280_temperature;BME280_humidity;BME280_pressure;Samples;Min_cycle;Max_cycle;Signal;HPM_P1;HPM_P2
2022/01/13 00:00:55;;;;;;;3.15;2.53;;;21.80;31.40;;;;;;5093769;28;20382;-69
2022/01/13 00:03:21;;;;;;;3.83;2.80;;;21.80;31.30;;;;;;5093616;28;20398;-67
2022/01/13 00:05:46;;;;;;;2.85;2.40;;;21.80;31.40;;;;;;5093599;28;20856;-70
2022/01/13 00:08:12;;;;;;;3.20;2.77;;;21.80;31.40;;;;;;5093676;28;20386;-69
2022/01/13 00:10:38;;;;;;;2.88;2.58;;;21.80;31.30;;;;;;5093534;28;20378;-69
2022/01/13 00:13:08;;;;;;;2.90;2.50;;;21.70;31.20;;;;;;5093512;28;20447;-65
2022/01/13 00:19:20;;;;;;;3.08;2.65;;;21.70;31.20;;;;;;5061391;28;20414;-70
2022/01/13 00:21:42;;;;;;;3.30;2.70;;;21.70;31.10;;;;;;5087577;28;20390;-69
2022/01/13 00:24:05;;;;;;;2.92;2.45;;;21.70;31.20;;;;;;5092516;28;20379;-69
2022/01/13 00:26:33;;;;;;;2.85;2.35;;;21.60;31.10;;;;;;5093290;28;20438;-70
2022/01/13 00:29:02;;;;;;;3.40;2.40;;;21.60;31.20;;;;;;5093225;28;20387;-70
2022/01/13 00:31:32;;;;;;;2.95;2.55;;;21.60;31.10;;;;;;5093206;28;20390;-69
2022/01/13 00:34:01;;;;;;;3.45;2.50;;;21.60;31.00;;;;;;5093175;28;20432;-68
2022/01/13 00:36:29;;;;;;;2.88;2.40;;;21.70;31.00;;;;;;5092971;28;20393;-69
2022/01/13 00:38:56;;;;;;;3.10;2.60;;;21.60;30.90;;;;;;5092087;28;20416;-70
2022/01/13 00:41:23;;;;;;;2.92;2.63;;;21.60;30.90;;;;;;5092911;28;20905;-65
2022/01/13 00:43:49;;;;;;;3.00;2.55;;;21.60;31.00;;;;;;5092967;28;20432;-69
2022/01/13 00:46:23;;;;;;;3.58;2.28;;;21.60;31.00;;;;;;5092698;28;20393;-67
2022/01/13 00:48:51;;;;;;;3.03;2.50;;;21.60;30.90;;;;;;5092950;28;20891;-65
2022/01/13 00:51:18;;;;;;;2.95;2.30;;;21.50;30.80;;;;;;5092798;28;20473;-65
2022/01/13 00:53:43;;;;;;;3.20;2.63;;;21.50;30.90;;;;;;5092881;28;20386;-66
2022/01/13 00:56:10;;;;;;;3.25;2.50;;;21.50;31.40;;;;;;5092712;28;20382;-69
2022/01/13 00:58:37;;;;;;;2.80;2.42;;;21.50;30.80;;;;;;5092652;28;20433;-64
2022/01/13 01:01:05;;;;;;;2.83;2.20;;;21.50;30.80;;;;;;5092736;28;20374;-66
2022/01/13 01:03:32;;;;;;;2.83;2.50;;;21.50;30.70;;;;;;5092591;28;20390;-64
2022/01/13 01:05:58;;;;;;;2.97;2.40;;;21.50;30.80;;;;;;5092663;28;20412;-69
2022/01/13 01:08:25;;;;;;;2.70;2.30;;;21.50;30.80;;;;;;5092460;28;20390;-65
2022/01/13 01:10:53;;;;;;;3.08;2.30;;;21.50;30.70;;;;;;5092552;28;20423;-64
2022/01/13 01:13:23;;;;;;;3.10;2.33;;;21.50;30.80;;;;;;5092451;28;20408;-66
2022/01/13 01:15:54;;;;;;;2.85;2.42;;;21.50;30.80;;;;;;5092236;28;20465;-67
2022/01/13 01:23:34;;;;;;;2.95;2.28;;;21.50;30.70;;;;;;5092415;28;20890;-68
2022/01/13 01:26:09;;;;;;;2.53;2.33;;;21.40;30.60;;;;;;5092184;28;20867;-64
2022/01/13 01:28:46;;;;;;;3.08;2.30;;;21.40;30.60;;;;;;5092299;28;20930;-64
2022/01/13 01:31:13;;;;;;;2.75;2.25;;;21.50;30.60;;;;;;5091796;28;20724;-68
2022/01/13 01:33:50;;;;;;;2.70;2.30;;;21.40;30.50;;;;;;5091673;28;20385;-66
2022/01/13 01:36:16;;;;;;;2.53;2.33;;;21.40;30.50;;;;;;5092011;28;20381;-70
2022/01/13 01:38:46;;;;;;;2.90;2.50;;;21.40;30.50;;;;;;5092020;28;20783;-69
2022/01/13 01:41:12;;;;;;;3.22;2.38;;;21.40;30.40;;;;;;5091960;28;20389;-69
2022/01/13 01:43:38;;;;;;;2.77;2.20;;;21.40;30.40;;;;;;5092088;28;20382;-66
2022/01/13 01:46:04;;;;;;;3.13;2.40;;;21.40;30.30;;;;;;5091996;28;20381;-66
2022/01/13 01:48:34;;;;;;;3.28;2.50;;;21.40;30.40;;;;;;5091624;28;20764;-68
2022/01/13 01:51:00;;;;;;;2.50;2.10;;;21.40;30.30;;;;;;5092062;28;20531;-66
2022/01/13 01:53:27;;;;;;;2.70;2.30;;;21.40;30.30;;;;;;5073792;28;20534;-67
2022/01/13 01:55:56;;;;;;;2.50;2.25;;;21.40;30.30;;;;;;5092079;28;20386;-67
2022/01/13 01:58:22;;;;;;;3.00;2.33;;;21.40;30.20;;;;;;5091783;28;20421;-67
2022/01/13 02:00:48;;;;;;;2.78;2.38;;;21.40;30.20;;;;;;5091895;28;20484;-70
2022/01/13 02:03:16;;;;;;;2.88;2.40;;;21.40;30.20;;;;;;5091812;28;20763;-70
2022/01/13 02:05:41;;;;;;;2.60;2.10;;;21.40;30.30;;;;;;5092046;28;20808;-66
2022/01/13 02:08:07;;;;;;;2.88;2.50;;;21.40;30.20;;;;;;5091777;28;20891;-64
2022/01/13 02:10:33;;;;;;;2.60;2.20;;;21.30;30.20;;;;;;5091815;28;20709;-69
2022/01/13 02:13:06;;;;;;;2.58;2.20;;;21.30;30.20;;;;;;5091793;28;20948;-65
2022/01/13 02:15:34;;;;;;;2.97;2.20;;;21.30;30.20;;;;;;5074598;28;20433;-67
2022/01/13 02:18:04;;;;;;;2.80;2.25;;;21.30;30.20;;;;;;5091415;28;20449;-66
2022/01/13 02:20:49;;;;;;;3.00;2.33;;;21.30;30.10;;;;;;5091799;28;20382;-65
2022/01/13 02:23:37;;;;;;;2.72;2.35;;;21.30;30.20;;;;;;5091605;28;20401;-65
2022/01/13 02:26:06;;;;;;;2.78;2.30;;;21.20;30.00;;;;;;5073602;28;20377;-69
2022/01/13 02:28:32;;;;;;;2.80;2.30;;;21.30;30.00;;;;;;5091667;28;20758;-68
2022/01/13 02:30:58;;;;;;;2.70;2.20;;;21.30;30.10;;;;;;5091702;28;20379;-64
2022/01/13 02:33:24;;;;;;;2.95;2.20;;;21.20;30.00;;;;;;5091510;28;20872;-70
2022/01/13 02:35:50;;;;;;;2.72;2.30;;;21.20;30.00;;;;;;5091592;28;20377;-64
2022/01/13 02:38:16;;;;;;;2.78;2.25;;;21.20;30.00;;;;;;5091473;28;20456;-68
2022/01/13 02:40:41;;;;;;;3.10;2.40;;;21.20;30.00;;;;;;5091537;28;20439;-67
2022/01/13 02:43:08;;;;;;;2.88;2.10;;;21.20;30.10;;;;;;5091480;28;20484;-68
2022/01/13 02:45:37;;;;;;;3.03;2.30;;;21.20;30.70;;;;;;5073298;28;20872;-64
2022/01/13 02:50:48;;;;;;;2.75;2.17;;;21.20;30.00;;;;;;5091441;28;20423;-70
2022/01/13 02:53:13;;;;;;;2.90;2.20;;;21.20;30.00;;;;;;5091348;28;20382;-67
2022/01/13 02:55:39;;;;;;;2.60;2.20;;;21.10;30.00;;;;;;5091397;28;20389;-67
2022/01/13 02:58:04;;;;;;;2.40;2.20;;;21.20;30.00;;;;;;5091176;28;20463;-65
2022/01/13 03:00:31;;;;;;;2.50;2.17;;;21.20;30.00;;;;;;5091399;28;20374;-68
2022/01/13 03:02:56;;;;;;;2.20;1.85;;;21.10;30.00;;;;;;5094688;28;20763;-65
2022/01/13 03:05:22;;;;;;;2.53;2.10;;;21.20;30.00;;;;;;5094287;28;20481;-69
2022/01/13 03:07:48;;;;;;;2.40;2.10;;;21.10;30.00;;;;;;5094665;28;20390;-68
2022/01/13 03:10:13;;;;;;;2.93;2.27;;;21.10;30.00;;;;;;5094671;28;20386;-69
2022/01/13 03:12:43;;;;;;;2.50;2.20;;;21.10;29.90;;;;;;5094863;28;20740;-69
2022/01/13 03:15:09;;;;;;;2.80;2.00;;;21.10;29.90;;;;;;5094756;28;20427;-64
2022/01/13 03:17:35;;;;;;;2.47;2.20;;;21.10;29.90;;;;;;5094558;28;20420;-70
2022/01/13 03:20:01;;;;;;;2.70;2.20;;;21.10;29.90;;;;;;5094619;28;20861;-69
2022/01/13 03:22:27;;;;;;;2.60;2.08;;;21.10;29.80;;;;;;5094723;28;20451;-70
2022/01/13 03:24:52;;;;;;;2.37;2.00;;;21.10;29.90;;;;;;5094523;28;20382;-67
2022/01/13 03:27:21;;;;;;;2.42;2.05;;;21.10;29.90;;;;;;5094485;28;20414;-69
2022/01/13 03:29:47;;;;;;;3.28;2.15;;;21.10;29.90;;;;;;5094468;28;20394;-70
2022/01/13 03:32:14;;;;;;;2.90;2.03;;;21.10;29.90;;;;;;5094333;28;20851;-65
2022/01/13 03:34:39;;;;;;;2.28;1.98;;;21.10;29.90;;;;;;5094299;28;20416;-64
2022/01/13 03:37:05;;;;;;;2.20;1.98;;;21.10;29.90;;;;;;5094225;28;20804;-65
2022/01/13 03:39:30;;;;;;;2.33;1.90;;;21.00;29.90;;;;;;5094298;28;20945;-64
2022/01/13 03:41:56;;;;;;;2.30;2.00;;;21.00;29.90;;;;;;5094228;28;20396;-69
2022/01/13 03:44:28;;;;;;;2.50;2.10;;;21.00;29.80;;;;;;5094108;28;20481;-68
2022/01/13 03:46:56;;;;;;;2.75;2.03;;;21.00;29.80;;;;;;5094024;28;20883;-65
2022/01/13 03:49:21;;;;;;;2.33;2.00;;;21.00;29.90;;;;;;5093980;28;20398;-69
2022/01/13 03:51:50;;;;;;;2.47;2.13;;;21.00;29.90;;;;;;5094047;28;20473;-66
2022/01/13 03:54:36;;;;;;;2.83;2.00;;;21.00;29.90;;;;;;5093742;28;20390;-64
2022/01/13 03:57:13;;;;;;;2.90;2.00;;;21.00;29.80;;;;;;5093249;28;20409;-66
2022/01/13 03:59:46;;;;;;;2.38;2.10;;;21.00;29.90;;;;;;5093863;28;20389;-65
2022/01/13 04:02:13;;;;;;;2.72;2.10;;;21.00;29.90;;;;;;5093763;28;20410;-65
2022/01/13 04:04:49;;;;;;;3.38;2.42;;;21.00;29.90;;;;;;5093780;28;20879;-64
2022/01/13 04:07:23;;;;;;;3.87;2.10;;;21.00;29.70;;;;;;5093676;28;20883;-67
2022/01/13 04:09:48;;;;;;;3.17;2.45;;;21.00;30.00;;;;;;5093673;28;20427;-65
2022/01/13 04:12:15;;;;;;;3.17;2.50;;;21.00;29.60;;;;;;5093391;28;20374;-71
2022/01/13 04:17:22;;;;;;;4.28;2.60;;;21.10;31.10;;;;;;5093534;28;20382;-66
2022/01/13 04:19:49;;;;;;;4.70;2.90;;;21.10;31.10;;;;;;5093755;28;20561;-64
2022/01/13 04:22:16;;;;;;;4.70;3.22;;;21.10;31.50;;;;;;5092840;28;20397;-64
2022/01/13 04:24:51;;;;;;;5.20;2.80;;;21.10;31.20;;;;;;5091945;28;20452;-66
2022/01/13 04:27:26;;;;;;;8.70;2.65;;;21.20;31.70;;;;;;5093096;28;20516;-63
2022/01/13 04:30:23;;;;;;;4.82;2.80;;;21.20;32.00;;;;;;5074937;28;20393;-64
2022/01/13 04:32:49;;;;;;;5.35;3.22;;;21.20;31.30;;;;;;5092938;28;20871;-66
2022/01/13 04:35:16;;;;;;;4.05;3.10;;;21.20;31.30;;;;;;5093046;28;20386;-63
2022/01/13 04:37:42;;;;;;;5.85;2.97;;;21.20;31.00;;;;;;5092953;28;20424;-63
2022/01/13 04:40:11;;;;;;;6.73;2.73;;;21.30;31.10;;;;;;5092857;28;20394;-67
2022/01/13 04:42:41;;;;;;;5.68;2.90;;;21.30;31.10;;;;;;5093192;28;20385;-63
2022/01/13 04:45:07;;;;;;;6.30;3.50;;;21.30;31.10;;;;;;5093162;28;20390;-69
2022/01/13 04:47:33;;;;;;;4.43;2.92;;;21.30;31.30;;;;;;5093156;28;20763;-63
2022/01/13 04:49:59;;;;;;;4.10;2.90;;;21.30;31.20;;;;;;5092960;28;20747;-63
2022/01/13 04:52:24;;;;;;;4.13;3.00;;;21.30;30.90;;;;;;5092982;28;20382;-65
2022/01/13 04:54:50;;;;;;;6.18;3.10;;;21.20;31.20;;;;;;5092739;28;20380;-63
2022/01/13 04:57:17;;;;;;;7.37;3.03;;;21.20;31.20;;;;;;5092623;28;20874;-69
2022/01/13 04:59:43;;;;;;;3.67;3.00;;;21.20;30.90;;;;;;5092898;28;20481;-64
2022/01/13 05:02:09;;;;;;;4.15;2.72;;;21.20;30.80;;;;;;5093404;28;20428;-67
2022/01/13 05:04:35;;;;;;;5.33;3.20;;;21.20;30.80;;;;;;5093293;28;20394;-64
2022/01/13 05:07:00;;;;;;;4.78;3.10;;;21.20;31.10;;;;;;5092603;28;20386;-66
2022/01/13 05:09:26;;;;;;;6.00;3.00;;;21.20;31.40;;;;;;5092427;28;20382;-65
2022/01/13 05:11:52;;;;;;;4.05;2.75;;;21.10;31.50;;;;;;5092552;28;20389;-65
2022/01/13 05:14:17;;;;;;;4.90;2.80;;;21.20;31.40;;;;;;5092424;28;20857;-64
2022/01/13 05:19:19;;;;;;;4.80;2.90;;;21.10;31.00;;;;;;5092039;28;20414;-67
2022/01/13 05:24:19;;;;;;;4.90;2.67;;;21.10;30.90;;;;;;5091763;28;20469;-69
2022/01/13 05:26:45;;;;;;;5.07;2.63;;;21.10;30.90;;;;;;5092273;28;20992;-63
2022/01/13 05:29:16;;;;;;;3.93;2.70;;;21.10;30.90;;;;;;5092341;28;20752;-63
2022/01/13 05:31:41;;;;;;;5.40;2.50;;;21.10;30.70;;;;;;5074071;28;20394;-63
2022/01/13 05:34:07;;;;;;;4.07;2.42;;;21.10;30.70;;;;;;5091709;28;20397;-63
2022/01/13 05:36:33;;;;;;;5.13;2.70;;;21.00;30.80;;;;;;5091649;28;20378;-63
2022/01/13 05:38:58;;;;;;;3.63;3.13;;;21.10;31.20;;;;;;5091856;28;20422;-63
2022/01/13 05:41:24;;;;;;;4.90;2.80;;;21.10;30.60;;;;;;5091854;28;20451;-64
2022/01/13 05:43:50;;;;;;;7.03;2.97;;;21.00;31.20;;;;;;5092054;28;20455;-63
2022/01/13 05:46:15;;;;;;;5.35;3.20;;;21.00;31.90;;;;;;5091735;28;20382;-64
2022/01/13 05:48:41;;;;;;;5.73;3.40;;;21.00;31.20;;;;;;5092020;28;20400;-63
2022/01/13 05:51:06;;;;;;;5.70;3.28;;;21.00;31.60;;;;;;5091902;28;20378;-63
2022/01/13 05:53:32;;;;;;;6.83;3.50;;;21.00;31.70;;;;;;5091828;28;20875;-63
2022/01/13 05:55:58;;;;;;;6.75;3.80;;;21.00;32.00;;;;;;5091726;28;20394;-65
2022/01/13 05:58:23;;;;;;;5.73;3.23;;;21.10;31.90;;;;;;5091611;28;20744;-64
2022/01/13 06:00:49;;;;;;;9.02;4.40;;;21.10;31.60;;;;;;5091344;28;20393;-65
2022/01/13 06:03:15;;;;;;;5.67;3.63;;;21.10;32.40;;;;;;5091521;28;20422;-63
2022/01/13 06:05:40;;;;;;;7.35;3.60;;;21.10;33.00;;;;;;5091863;28;20422;-63
2022/01/13 06:08:06;;;;;;;6.37;3.67;;;21.10;32.30;;;;;;5091131;28;20446;-64
2022/01/13 06:10:32;;;;;;;7.47;3.40;;;21.10;32.30;;;;;;5092088;28;20382;-65
2022/01/13 06:12:57;;;;;;;6.03;3.20;;;21.10;32.10;;;;;;5091764;28;21113;-65
2022/01/13 06:15:25;;;;;;;5.60;3.78;;;21.00;31.70;;;;;;5090097;28;20408;-63
2022/01/13 06:17:53;;;;;;;6.55;4.18;;;21.10;31.80;;;;;;5091379;28;20410;-63
2022/01/13 06:20:20;;;;;;;6.82;3.90;;;21.00;31.80;;;;;;5072843;28;20381;-64
2022/01/13 06:22:47;;;;;;;6.22;3.58;;;21.10;31.80;;;;;;5090220;28;20386;-68
2022/01/13 06:25:14;;;;;;;6.05;3.40;;;21.00;31.70;;;;;;5091065;28;20410;-64
2022/01/13 06:27:40;;;;;;;4.85;3.50;;;21.00;32.20;;;;;;5090817;28;20478;-64
2022/01/13 06:30:08;;;;;;;5.00;3.20;;;21.00;32.70;;;;;;5091109;28;20390;-63
2022/01/13 06:32:34;;;;;;;5.95;3.35;;;21.00;32.80;;;;;;5090923;28;20386;-63
2022/01/13 06:35:00;;;;;;;5.40;3.30;;;21.10;32.70;;;;;;5090655;28;20381;-63
2022/01/13 06:37:25;;;;;;;4.68;3.08;;;21.10;32.60;;;;;;5093435;28;20477;-64
2022/01/13 06:39:51;;;;;;;6.07;3.70;;;21.10;32.50;;;;;;5094791;28;20488;-64
2022/01/13 06:42:17;;;;;;;4.88;3.03;;;21.00;31.70;;;;;;5094778;28;20883;-64
2022/01/13 06:44:44;;;;;;;4.60;3.00;;;21.00;32.00;;;;;;5094667;28;20390;-63
2022/01/13 06:47:10;;;;;;;5.35;3.25;;;21.00;31.90;;;;;;5094571;28;20467;-64
2022/01/13 06:49:36;;;;;;;4.87;3.13;;;21.00;32.40;;;;;;5094586;28;20390;-64
2022/01/13 06:52:03;;;;;;;5.22;2.95;;;20.90;33.10;;;;;;5094149;28;20386;-64
2022/01/13 06:54:28;;;;;;;6.38;3.10;;;21.00;32.40;;;;;;5094480;28;20390;-64
2022/01/13 06:56:54;;;;;;;5.03;2.97;;;21.00;32.70;;;;;;5094350;28;20443;-64
2022/01/13 06:59:20;;;;;;;5.45;2.75;;;21.00;32.70;;;;;;5093880;28;20413;-64
2022/01/13 07:01:47;;;;;;;5.57;3.50;;;21.00;32.50;;;;;;5094277;28;20412;-63
2022/01/13 07:04:14;;;;;;;4.47;3.22;;;21.00;32.00;;;;;;5094163;28;20916;-62
2022/01/13 07:06:41;;;;;;;3.65;2.97;;;21.00;31.90;;;;;;5094123;28;20930;-63
2022/01/13 07:09:10;;;;;;;5.63;3.03;;;21.00;31.90;;;;;;5093290;28;20386;-63
2022/01/13 07:11:36;;;;;;;3.95;2.75;;;21.00;31.80;;;;;;5094551;28;20374;-63
2022/01/13 07:14:02;;;;;;;3.85;2.92;;;21.00;31.70;;;;;;5094210;28;20496;-63
2022/01/13 07:16:28;;;;;;;4.50;3.22;;;21.00;31.60;;;;;;5094184;28;20382;-63
2022/01/13 07:18:54;;;;;;;3.30;2.28;;;21.00;31.60;;;;;;5094023;28;20418;-62
2022/01/13 07:21:21;;;;;;;3.75;2.85;;;21.00;31.50;;;;;;5093485;28;20431;-62
2022/01/13 07:23:47;;;;;;;3.22;2.80;;;20.90;31.40;;;;;;5093936;28;20890;-62
2022/01/13 07:26:13;;;;;;;2.90;2.60;;;20.90;31.30;;;;;;5093922;28;20382;-62
2022/01/13 07:28:39;;;;;;;4.35;3.10;;;21.00;31.20;;;;;;5075695;28;20426;-62
2022/01/13 07:31:05;;;;;;;4.90;3.30;;;20.90;31.00;;;;;;5093618;28;20886;-62
2022/01/13 07:33:30;;;;;;;4.32;3.50;;;20.90;30.90;;;;;;5093792;28;20401;-62
2022/01/13 07:35:56;;;;;;;4.18;3.28;;;20.90;30.80;;;;;;5093900;28;20386;-62
2022/01/13 07:38:22;;;;;;;4.27;3.47;;;20.90;30.80;;;;;;5093515;28;20418;-62
2022/01/13 07:40:49;;;;;;;4.30;3.60;;;20.90;30.70;;;;;;5093477;28;20390;-66
2022/01/13 07:43:21;;;;;;;8.77;3.58;;;20.90;30.60;;;;;;5075137;28;20394;-64
2022/01/13 07:45:50;;;;;;;4.60;3.42;;;20.90;30.60;;;;;;5093451;28;20777;-62
2022/01/13 07:48:16;;;;;;;4.10;3.60;;;20.90;30.40;;;;;;5093173;28;20412;-62
2022/01/13 07:50:43;;;;;;;3.80;3.10;;;20.90;30.30;;;;;;5093489;28;20382;-62
2022/01/13 07:53:09;;;;;;;4.15;3.75;;;20.90;30.20;;;;;;5075320;28;20401;-62
2022/01/13 07:55:35;;;;;;;5.10;3.70;;;20.90;30.20;;;;;;5093587;28;20375;-62
2022/01/13 07:58:00;;;;;;;4.60;4.00;;;20.90;30.10;;;;;;5093220;28;20401;-62
2022/01/13 08:00:26;;;;;;;4.67;3.90;;;20.90;30.10;;;;;;5093282;28;20451;-62
2022/01/13 08:02:52;;;;;;;3.95;3.45;;;21.00;30.10;;;;;;5093103;28;20381;-62
2022/01/13 08:05:18;;;;;;;4.50;3.80;;;21.00;30.00;;;;;;5092625;28;20394;-62
2022/01/13 08:07:43;;;;;;;4.43;3.55;;;21.00;30.00;;;;;;5093239;28;20423;-62
2022/01/13 08:10:10;;;;;;;4.93;3.80;;;21.00;29.90;;;;;;5092957;28;20386;-62
2022/01/13 08:12:37;;;;;;;4.28;3.47;;;21.00;29.90;;;;;;5092883;28;20417;-62
2022/01/13 08:15:04;;;;;;;4.32;3.60;;;21.00;29.90;;;;;;5092919;28;20397;-62
2022/01/13 08:20:14;;;;;;;5.38;4.05;;;21.00;29.80;;;;;;5093180;28;20389;-62
2022/01/13 08:22:40;;;;;;;4.10;3.70;;;21.00;29.70;;;;;;5092052;28;20390;-63
2022/01/13 08:25:06;;;;;;;4.50;3.70;;;21.00;29.80;;;;;;5092065;28;20398;-63
2022/01/13 08:27:31;;;;;;;4.40;3.90;;;21.10;29.80;;;;;;5092864;28;20386;-65
2022/01/13 08:29:57;;;;;;;4.15;3.75;;;21.10;29.80;;;;;;5092553;28;20382;-63
2022/01/13 08:32:24;;;;;;;4.30;3.90;;;21.10;29.80;;;;;;5092865;28;20386;-63
2022/01/13 08:34:49;;;;;;;4.30;3.70;;;21.10;29.90;;;;;;5092546;28;20386;-62
2022/01/13 08:37:15;;;;;;;3.97;3.50;;;21.10;30.00;;;;;;5092357;28;20928;-62
2022/01/13 08:39:44;;;;;;;4.50;3.60;;;21.10;29.80;;;;;;5092564;28;20436;-62
2022/01/13 08:42:11;;;;;;;4.15;3.75;;;21.10;29.70;;;;;;5092347;28;20481;-62
2022/01/13 08:44:37;;;;;;;3.93;3.40;;;21.10;29.70;;;;;;5092109;28;20397;-63
2022/01/13 08:47:04;;;;;;;3.53;3.20;;;21.20;29.80;;;;;;5091876;28;20429;-63
2022/01/13 08:49:30;;;;;;;4.00;3.55;;;21.20;30.30;;;;;;5092104;28;20401;-63
2022/01/13 08:51:56;;;;;;;3.40;3.10;;;21.20;29.80;;;;;;5092328;28;20394;-63
2022/01/13 08:54:22;;;;;;;3.85;3.30;;;21.20;29.80;;;;;;5092297;28;20393;-63
2022/01/13 08:56:48;;;;;;;3.42;3.10;;;21.20;29.90;;;;;;5092178;28;20382;-62
2022/01/13 08:59:14;;;;;;;3.78;3.28;;;21.30;29.90;;;;;;5091056;28;20536;-63
2022/01/13 09:01:40;;;;;;;3.88;3.35;;;21.30;29.90;;;;;;5092207;28;20469;-62
2022/01/13 09:04:06;;;;;;;3.90;3.50;;;21.30;30.00;;;;;;5092198;28;20390;-63
2022/01/13 09:06:32;;;;;;;3.45;3.08;;;21.30;29.90;;;;;;5073658;28;20401;-62
2022/01/13 09:08:58;;;;;;;4.20;3.27;;;21.40;29.90;;;;;;5092089;28;20390;-63
2022/01/13 09:11:24;;;;;;;3.58;3.08;;;21.40;29.90;;;;;;5091876;28;20414;-62
2022/01/13 09:13:56;;;;;;;3.45;3.15;;;21.50;29.90;;;;;;5091928;28;20473;-63
2022/01/13 09:16:24;;;;;;;3.90;3.20;;;21.50;29.90;;;;;;5073727;28;20389;-63
2022/01/13 09:21:26;;;;;;;3.90;2.90;;;21.50;29.70;;;;;;5091779;28;20394;-64
2022/01/13 09:23:52;;;;;;;3.45;3.15;;;21.50;29.80;;;;;;5091475;28;20388;-63
2022/01/13 09:26:18;;;;;;;3.30;2.85;;;21.50;29.90;;;;;;5091476;28;20378;-62
2022/01/13 09:28:44;;;;;;;3.90;3.00;;;21.50;29.80;;;;;;5091792;28;20729;-62
2022/01/13 09:31:09;;;;;;;3.10;2.80;;;21.50;29.70;;;;;;5107206;28;20390;-63
2022/01/13 09:33:35;;;;;;;3.30;3.00;;;21.50;29.70;;;;;;5091822;28;20393;-63
2022/01/13 09:36:03;;;;;;;3.30;3.00;;;21.50;29.70;;;;;;5091598;28;20428;-63
2022/01/13 09:38:28;;;;;;;3.35;2.70;;;21.50;29.80;;;;;;5091071;28;20409;-63
2022/01/13 09:40:54;;;;;;;3.13;2.70;;;21.50;29.80;;;;;;5091334;28;20399;-63
2022/01/13 09:43:25;;;;;;;3.40;3.03;;;21.50;29.70;;;;;;5091388;28;20397;-63
2022/01/13 09:45:52;;;;;;;3.50;3.10;;;21.60;29.60;;;;;;5091472;28;20413;-64
2022/01/13 09:48:19;;;;;;;3.30;2.80;;;21.60;29.60;;;;;;5090946;28;20425;-63
2022/01/13 09:50:46;;;;;;;2.90;2.60;;;21.60;29.50;;;;;;5091403;28;20408;-63
2022/01/13 09:53:13;;;;;;;3.40;2.90;;;21.60;29.70;;;;;;5091399;28;20533;-63
2022/01/13 09:55:40;;;;;;;3.20;2.60;;;21.60;29.70;;;;;;5091516;28;20587;-63
2022/01/13 09:58:10;;;;;;;3.13;2.58;;;21.60;29.60;;;;;;5091430;28;20402;-63
2022/01/13 10:00:37;;;;;;;2.90;2.58;;;21.60;29.60;;;;;;5091302;28;20852;-63
2022/01/13 10:03:14;;;;;;;2.92;2.63;;;21.60;29.60;;;;;;5091506;28;20377;-63
2022/01/13 10:06:10;;;;;;;3.13;2.67;;;21.70;29.60;;;;;;5091236;28;20395;-63
2022/01/13 10:08:50;;;;;;;3.08;2.70;;;21.60;29.60;;;;;;5089749;28;20444;-63
2022/01/13 10:11:35;;;;;;;3.13;2.80;;;21.60;29.60;;;;;;5093968;28;20439;-63
2022/01/13 10:16:53;;;;;;;3.55;2.80;;;21.60;29.50;;;;;;5095425;28;20428;-63
2022/01/13 10:19:38;;;;;;;2.85;2.45;;;21.60;29.50;;;;;;5095020;28;20410;-63
2022/01/13 10:22:06;;;;;;;3.33;2.60;;;21.60;29.50;;;;;;5095058;28;20435;-63
2022/01/13 10:24:37;;;;;;;3.50;2.40;;;21.60;29.60;;;;;;5095171;28;20519;-63
2022/01/13 10:27:11;;;;;;;3.35;2.67;;;21.60;29.50;;;;;;5094937;28;20381;-63
2022/01/13 10:29:57;;;;;;;2.75;2.30;;;21.60;29.50;;;;;;5095106;28;20386;-63
2022/01/13 10:32:34;;;;;;;2.65;2.45;;;21.60;29.50;;;;;;5094178;28;20400;-63
2022/01/13 10:35:04;;;;;;;2.95;2.55;;;21.60;29.40;;;;;;5094960;28;20378;-63
2022/01/13 10:37:35;;;;;;;2.92;2.53;;;21.60;29.40;;;;;;5076725;28;20778;-63
2022/01/13 10:40:17;;;;;;;3.25;2.65;;;21.70;29.30;;;;;;5076862;28;20384;-63
2022/01/13 10:45:33;;;;;;;3.00;2.50;;;21.80;29.30;;;;;;5094729;28;21033;-63
2022/01/13 10:48:09;;;;;;;3.13;2.70;;;21.80;29.20;;;;;;5057414;28;20940;-63
2022/01/13 10:50:56;;;;;;;3.38;2.90;;;21.80;29.60;;;;;;5053843;28;20386;-63
2022/01/13 10:53:26;;;;;;;3.17;2.70;;;21.80;29.00;;;;;;5050702;28;20785;-63
2022/01/13 10:56:07;;;;;;;2.90;2.60;;;21.80;28.90;;;;;;5050590;28;20389;-65
2022/01/13 10:58:35;;;;;;;2.80;2.47;;;21.90;28.90;;;;;;5053821;28;20420;-64
2022/01/13 11:01:03;;;;;;;3.17;2.50;;;21.90;28.60;;;;;;5052727;28;20397;-66
2022/01/13 11:03:31;;;;;;;3.50;2.95;;;21.90;28.70;;;;;;5053763;28;20405;-61
2022/01/13 11:06:03;;;;;;;3.00;2.70;;;21.90;28.70;;;;;;5052553;28;20400;-65
2022/01/13 11:08:43;;;;;;;3.60;2.60;;;21.90;28.90;;;;;;5053761;28;20396;-64
2022/01/13 11:11:22;;;;;;;4.00;2.57;;;21.90;29.50;;;;;;5050142;28;20566;-64
2022/01/13 11:13:53;;;;;;;3.90;2.58;;;21.90;29.60;;;;;;5051546;28;20413;-65
2022/01/13 11:16:23;;;;;;;3.23;2.50;;;22.00;29.60;;;;;;5050047;28;20556;-68
2022/01/13 11:18:49;;;;;;;5.82;3.85;;;22.00;29.40;;;;;;5052584;28;20421;-64
2022/01/13 11:21:15;;;;;;;6.03;3.53;;;22.10;29.20;;;;;;5052040;28;20435;-72
2022/01/13 11:23:48;;;;;;;4.93;3.38;;;22.20;29.10;;;;;;5052544;28;20806;-66
2022/01/13 11:26:15;;;;;;;3.77;2.60;;;22.20;28.90;;;;;;5052409;28;20517;-64
2022/01/13 11:28:41;;;;;;;3.70;2.60;;;22.30;29.00;;;;;;5052627;28;20440;-64
2022/01/13 11:31:08;;;;;;;3.77;2.50;;;22.30;28.90;;;;;;5052285;28;20396;-64
2022/01/13 11:33:36;;;;;;;3.60;2.38;;;22.30;28.90;;;;;;5051382;28;20409;-64
2022/01/13 11:36:02;;;;;;;3.28;2.55;;;22.40;29.00;;;;;;5052186;28;20457;-65
2022/01/13 11:38:31;;;;;;;3.00;2.40;;;22.40;29.00;;;;;;5052296;28;20413;-64
2022/01/13 11:41:02;;;;;;;6.60;2.50;;;22.40;28.80;;;;;;5052268;28;20748;-65
2022/01/13 11:43:30;;;;;;;2.92;2.50;;;22.40;29.10;;;;;;5052446;28;20396;-63
2022/01/13 11:46:10;;;;;;;4.18;2.47;;;22.40;28.90;;;;;;5052009;28;20381;-65
2022/01/13 11:48:38;;;;;;;3.60;2.10;;;22.40;29.20;;;;;;5090697;28;20402;-65
2022/01/13 11:51:16;;;;;;;3.38;2.30;;;22.40;29.00;;;;;;5090112;28;20398;-66
2022/01/13 11:53:55;;;;;;;3.22;2.10;;;22.40;29.20;;;;;;5091071;28;20825;-65
2022/01/13 11:56:22;;;;;;;3.70;2.20;;;22.40;29.20;;;;;;5090914;28;20485;-64
2022/01/13 11:58:48;;;;;;;2.70;2.10;;;22.40;29.20;;;;;;5091938;28;20922;-65
2022/01/13 12:01:24;;;;;;;2.70;2.10;;;22.40;29.30;;;;;;5092448;28;20394;-72
2022/01/13 12:04:01;;;;;;;3.05;2.13;;;22.40;29.20;;;;;;5093181;28;20740;-63
2022/01/13 12:06:41;;;;;;;2.70;2.10;;;22.50;29.10;;;;;;5093054;28;20417;-63
2022/01/13 12:09:29;;;;;;;2.78;1.80;;;22.50;28.90;;;;;;5092585;28;20401;-63
2022/01/13 12:11:56;;;;;;;2.27;1.80;;;22.50;28.80;;;;;;5092026;28;20420;-64
2022/01/13 12:14:26;;;;;;;3.63;1.90;;;22.50;28.90;;;;;;5092934;28;20873;-63
2022/01/13 12:16:55;;;;;;;2.92;1.73;;;22.60;28.90;;;;;;5091958;28;20745;-64
2022/01/13 12:19:37;;;;;;;2.35;1.80;;;22.60;28.80;;;;;;5088934;28;20413;-63
2022/01/13 12:22:36;;;;;;;2.97;1.80;;;22.60;28.90;;;;;;5092060;28;20390;-63
2022/01/13 12:25:06;;;;;;;2.60;1.70;;;22.60;29.10;;;;;;5092673;28;20461;-63
2022/01/13 12:27:40;;;;;;;2.42;1.67;;;22.60;29.10;;;;;;5073807;28;20463;-64
2022/01/13 12:30:16;;;;;;;2.58;1.60;;;22.60;29.10;;;;;;5093065;28;20447;-63
2022/01/13 12:32:45;;;;;;;1.80;1.30;;;22.50;29.30;;;;;;5074464;28;20890;-63
2022/01/13 12:35:27;;;;;;;2.53;1.33;;;22.50;29.20;;;;;;5092542;28;20386;-63
2022/01/13 12:38:01;;;;;;;2.33;1.42;;;22.60;29.10;;;;;;5092625;28;20759;-63
2022/01/13 12:40:39;;;;;;;1.90;1.50;;;22.60;29.10;;;;;;5092443;28;20382;-63
2022/01/13 12:43:49;;;;;;;2.88;1.60;;;22.60;29.30;;;;;;5092578;28;20374;-63
2022/01/13 12:46:11;;;;;;;1.90;1.30;;;22.60;29.30;;;;;;5091109;28;20382;-63
2022/01/13 12:48:39;;;;;;;2.30;1.52;;;22.60;29.50;;;;;;5074119;28;20406;-63
2022/01/13 12:51:05;;;;;;;2.42;1.50;;;22.60;29.40;;;;;;5092044;28;20743;-63
2022/01/13 12:53:36;;;;;;;2.10;1.33;;;22.60;29.40;;;;;;5074057;28;20476;-63
2022/01/13 12:56:07;;;;;;;2.13;1.40;;;22.60;29.40;;;;;;5092294;28;20381;-63
2022/01/13 12:58:38;;;;;;;1.73;1.30;;;22.60;29.40;;;;;;5092173;28;20418;-63
2022/01/13 13:01:06;;;;;;;1.83;1.33;;;22.60;29.40;;;;;;5091981;28;20439;-63
2022/01/13 13:03:33;;;;;;;2.10;1.50;;;22.60;29.40;;;;;;5092027;28;20390;-63
2022/01/13 13:05:59;;;;;;;1.75;1.20;;;22.60;29.40;;;;;;5092127;28;20817;-63
2022/01/13 13:08:26;;;;;;;2.60;1.73;;;22.60;29.40;;;;;;5073855;28;20470;-63
2022/01/13 13:11:01;;;;;;;1.60;1.20;;;22.70;29.40;;;;;;5073875;28;20417;-63
2022/01/13 13:13:32;;;;;;;2.10;1.50;;;22.70;29.40;;;;;;5073844;28;20454;-63
2022/01/13 13:16:06;;;;;;;1.92;1.40;;;22.70;29.50;;;;;;5091923;28;20386;-63
2022/01/13 13:18:32;;;;;;;2.27;1.50;;;22.70;29.40;;;;;;5091582;28;20413;-63
2022/01/13 13:21:03;;;;;;;1.80;1.58;;;22.70;29.40;;;;;;5073808;28;20386;-63
2022/01/13 13:23:34;;;;;;;2.40;1.60;;;22.70;29.40;;;;;;5091669;28;20418;-63
2022/01/13 13:26:08;;;;;;;1.85;1.50;;;22.70;29.40;;;;;;5073117;28;20395;-63